sensor_id;sensor_type;location;lat;lon;timestamp;temperature;humidity
44695;DHT22;32845;59.422;17.930;2024-01-27T00:02:21;1.30;99.90
44695;DHT22;32845;59.422;17.930;2024-01-27T00:06:52;1.30;99.90
44695;DHT22;32845;59.422;17.930;2024-01-27T00:11:22;1.30;99.90
44695;DHT22;32845;59.422;17.930;2024-01-27T00:15:54;1.30;99.90
44695;DHT22;32845;59.422;17.930;2024-01-27T00:20:25;1.20;99.90
44695;DHT22;32845;59.422;17.930;2024-01-27T00:24:56;1.20;99.90
44695;DHT22;32845;59.422;17.930;2024-01-27T00:29:26;1.20;99.90
44695;DHT22;32845;59.422;17.930;2024-01-27T00:33:57;1.20;99.90
44695;DHT22;32845;59.422;17.930;2024-01-27T00:38:28;1.20;99.90
44695;DHT22;32845;59.422;17.930;2024-01-27T00:42:58;1.20;99.90
44695;DHT22;32845;59.422;17.930;2024-01-27T00:47:29;1.30;99.90
44695;DHT22;32845;59.422;17.930;2024-01-27T00:51:59;1.20;99.90
44695;DHT22;32845;59.422;17.930;2024-01-27T00:56:30;1.30;99.90
44695;DHT22;32845;59.422;17.930;2024-01-27T01:01:00;1.30;99.90
44695;DHT22;32845;59.422;17.930;2024-01-27T01:05:32;1.30;99.90
44695;DHT22;32845;59.422;17.930;2024-01-27T01:10:02;1.30;99.90
44695;DHT22;32845;59.422;17.930;2024-01-27T01:14:33;1.30;99.90
44695;DHT22;32845;59.422;17.930;2024-01-27T01:19:04;1.30;99.90
44695;DHT22;32845;59.422;17.930;2024-01-27T01:23:34;1.20;99.90
44695;DHT22;32845;59.422;17.930;2024-01-27T01:28:05;1.20;99.90
44695;DHT22;32845;59.422;17.930;2024-01-27T01:32:36;1.20;99.90
44695;DHT22;32845;59.422;17.930;2024-01-27T01:37:06;1.20;99.90
44695;DHT22;32845;59.422;17.930;2024-01-27T01:41:37;1.20;99.90
44695;DHT22;32845;59.422;17.930;2024-01-27T01:46:08;1.20;99.90
44695;DHT22;32845;59.422;17.930;2024-01-27T01:50:39;1.20;99.90
44695;DHT22;32845;59.422;17.930;2024-01-27T01:55:09;1.20;99.90
44695;DHT22;32845;59.422;17.930;2024-01-27T01:59:40;1.20;99.90
44695;DHT22;32845;59.422;17.930;2024-01-27T02:04:11;1.20;99.90
44695;DHT22;32845;59.422;17.930;2024-01-27T02:08:42;1.20;99.90
44695;DHT22;32845;59.422;17.930;2024-01-27T02:13:20;1.20;99.90
44695;DHT22;32845;59.422;17.930;2024-01-27T02:17:50;1.20;99.90
44695;DHT22;32845;59.422;17.930;2024-01-27T02:22:21;1.20;99.90
44695;DHT22;32845;59.422;17.930;2024-01-27T02:26:52;1.30;99.90
44695;DHT22;32845;59.422;17.930;2024-01-27T02:31:22;1.30;99.90
44695;DHT22;32845;59.422;17.930;2024-01-27T02:35:53;1.30;99.90
44695;DHT22;32845;59.422;17.930;2024-01-27T02:40:23;1.30;99.90
44695;DHT22;32845;59.422;17.930;2024-01-27T02:44:54;1.30;99.90
44695;DHT22;32845;59.422;17.930;2024-01-27T02:49:25;1.30;99.90
44695;DHT22;32845;59.422;17.930;2024-01-27T02:53:55;1.30;99.90
44695;DHT22;32845;59.422;17.930;2024-01-27T02:58:26;1.30;99.90
44695;DHT22;32845;59.422;17.930;2024-01-27T03:02:56;1.30;99.90
44695;DHT22;32845;59.422;17.930;2024-01-27T03:07:28;1.30;99.90
44695;DHT22;32845;59.422;17.930;2024-01-27T03:11:59;1.30;99.90
44695;DHT22;32845;59.422;17.930;2024-01-27T03:16:29;1.30;99.90
44695;DHT22;32845;59.422;17.930;2024-01-27T03:21:00;1.30;99.90
44695;DHT22;32845;59.422;17.930;2024-01-27T03:25:31;1.20;99.90
44695;DHT22;32845;59.422;17.930;2024-01-27T03:30:02;1.20;99.90
44695;DHT22;32845;59.422;17.930;2024-01-27T03:34:33;1.20;99.90
44695;DHT22;32845;59.422;17.930;2024-01-27T03:39:04;1.10;99.90
44695;DHT22;32845;59.422;17.930;2024-01-27T03:43:35;1.10;99.90
44695;DHT22;32845;59.422;17.930;2024-01-27T03:48:06;1.00;99.90
44695;DHT22;32845;59.422;17.930;2024-01-27T03:52:37;1.00;99.90
44695;DHT22;32845;59.422;17.930;2024-01-27T03:57:07;0.90;99.90
44695;DHT22;32845;59.422;17.930;2024-01-27T04:01:38;0.90;99.90
44695;DHT22;32845;59.422;17.930;2024-01-27T04:06:09;0.90;99.90
44695;DHT22;32845;59.422;17.930;2024-01-27T04:10:39;0.90;99.90
44695;DHT22;32845;59.422;17.930;2024-01-27T04:15:10;0.90;99.90
44695;DHT22;32845;59.422;17.930;2024-01-27T04:19:41;0.80;99.90
44695;DHT22;32845;59.422;17.930;2024-01-27T04:24:11;0.80;99.90
44695;DHT22;32845;59.422;17.930;2024-01-27T04:28:42;0.70;99.90
44695;DHT22;32845;59.422;17.930;2024-01-27T04:33:13;0.70;99.90
44695;DHT22;32845;59.422;17.930;2024-01-27T04:37:44;0.60;99.90
44695;DHT22;32845;59.422;17.930;2024-01-27T04:42:15;0.60;99.90
44695;DHT22;32845;59.422;17.930;2024-01-27T04:46:47;0.50;99.90
44695;DHT22;32845;59.422;17.930;2024-01-27T04:51:17;0.50;99.90
44695;DHT22;32845;59.422;17.930;2024-01-27T04:55:48;0.40;99.90
44695;DHT22;32845;59.422;17.930;2024-01-27T05:00:18;0.40;99.90
44695;DHT22;32845;59.422;17.930;2024-01-27T05:04:49;0.30;99.90
44695;DHT22;32845;59.422;17.930;2024-01-27T05:09:20;0.30;99.90
44695;DHT22;32845;59.422;17.930;2024-01-27T05:13:50;0.30;99.90
44695;DHT22;32845;59.422;17.930;2024-01-27T05:18:21;0.30;99.90
44695;DHT22;32845;59.422;17.930;2024-01-27T05:22:51;0.20;99.90
44695;DHT22;32845;59.422;17.930;2024-01-27T05:27:22;0.20;99.90
44695;DHT22;32845;59.422;17.930;2024-01-27T05:31:53;0.10;99.90
44695;DHT22;32845;59.422;17.930;2024-01-27T05:36:24;0.00;99.90
44695;DHT22;32845;59.422;17.930;2024-01-27T05:40:55;0.00;99.90
44695;DHT22;32845;59.422;17.930;2024-01-27T05:45:25;0.00;99.90
44695;DHT22;32845;59.422;17.930;2024-01-27T05:49:56;0.00;99.90
44695;DHT22;32845;59.422;17.930;2024-01-27T05:54:27;-0.10;99.90
44695;DHT22;32845;59.422;17.930;2024-01-27T05:58:58;-0.10;99.90
44695;DHT22;32845;59.422;17.930;2024-01-27T06:03:28;-0.10;99.90
44695;DHT22;32845;59.422;17.930;2024-01-27T06:07:59;-0.20;99.90
44695;DHT22;32845;59.422;17.930;2024-01-27T06:12:29;-0.20;99.90
44695;DHT22;32845;59.422;17.930;2024-01-27T06:17:03;-0.30;99.90
44695;DHT22;32845;59.422;17.930;2024-01-27T06:21:33;-0.30;99.90
44695;DHT22;32845;59.422;17.930;2024-01-27T06:26:06;-0.30;99.90
44695;DHT22;32845;59.422;17.930;2024-01-27T06:30:37;-0.40;99.90
44695;DHT22;32845;59.422;17.930;2024-01-27T06:35:07;-0.50;99.90
44695;DHT22;32845;59.422;17.930;2024-01-27T06:39:38;-0.70;99.90
44695;DHT22;32845;59.422;17.930;2024-01-27T06:44:09;-0.70;99.90
44695;DHT22;32845;59.422;17.930;2024-01-27T06:48:40;-0.80;99.90
44695;DHT22;32845;59.422;17.930;2024-01-27T06:53:10;-0.80;99.90
44695;DHT22;32845;59.422;17.930;2024-01-27T06:57:41;-0.90;99.90
44695;DHT22;32845;59.422;17.930;2024-01-27T07:02:11;-0.90;99.90
44695;DHT22;32845;59.422;17.930;2024-01-27T07:06:44;-0.80;99.90
44695;DHT22;32845;59.422;17.930;2024-01-27T07:11:15;-0.80;99.90
44695;DHT22;32845;59.422;17.930;2024-01-27T07:15:45;-0.80;99.90
44695;DHT22;32845;59.422;17.930;2024-01-27T07:20:16;-0.80;99.90
44695;DHT22;32845;59.422;17.930;2024-01-27T07:24:47;-0.80;99.90
44695;DHT22;32845;59.422;17.930;2024-01-27T07:29:20;-0.80;99.90
44695;DHT22;32845;59.422;17.930;2024-01-27T07:33:51;-0.90;99.90
44695;DHT22;32845;59.422;17.930;2024-01-27T07:38:21;-1.00;99.90
44695;DHT22;32845;59.422;17.930;2024-01-27T07:42:52;-1.00;99.90
44695;DHT22;32845;59.422;17.930;2024-01-27T07:47:23;-1.00;99.90
44695;DHT22;32845;59.422;17.930;2024-01-27T07:51:53;-1.00;99.90
44695;DHT22;32845;59.422;17.930;2024-01-27T07:56:24;-1.00;99.90
44695;DHT22;32845;59.422;17.930;2024-01-27T08:00:55;-0.90;99.90
44695;DHT22;32845;59.422;17.930;2024-01-27T08:05:25;-0.90;99.90
44695;DHT22;32845;59.422;17.930;2024-01-27T08:09:56;-0.90;99.90
44695;DHT22;32845;59.422;17.930;2024-01-27T08:14:30;-0.90;99.90
44695;DHT22;32845;59.422;17.930;2024-01-27T08:19:01;-0.90;99.90
44695;DHT22;32845;59.422;17.930;2024-01-27T08:23:31;-0.80;99.90
44695;DHT22;32845;59.422;17.930;2024-01-27T08:28:02;-0.80;99.90
44695;DHT22;32845;59.422;17.930;2024-01-27T08:32:33;-0.80;99.90
44695;DHT22;32845;59.422;17.930;2024-01-27T08:37:19;-0.80;99.90
44695;DHT22;32845;59.422;17.930;2024-01-27T08:41:50;-0.70;99.90
44695;DHT22;32845;59.422;17.930;2024-01-27T08:46:21;-0.70;99.90
44695;DHT22;32845;59.422;17.930;2024-01-27T08:50:52;-0.60;99.90
44695;DHT22;32845;59.422;17.930;2024-01-27T08:55:23;-0.60;99.90
44695;DHT22;32845;59.422;17.930;2024-01-27T08:59:54;-0.50;99.90
44695;DHT22;32845;59.422;17.930;2024-01-27T09:04:25;-0.50;99.90
44695;DHT22;32845;59.422;17.930;2024-01-27T09:08:56;-0.40;99.90
44695;DHT22;32845;59.422;17.930;2024-01-27T09:13:26;-0.40;99.90
44695;DHT22;32845;59.422;17.930;2024-01-27T09:17:57;-0.40;99.90
44695;DHT22;32845;59.422;17.930;2024-01-27T09:22:27;-0.30;99.90
44695;DHT22;32845;59.422;17.930;2024-01-27T09:26:58;-0.30;99.90
44695;DHT22;32845;59.422;17.930;2024-01-27T09:31:29;-0.30;99.90
44695;DHT22;32845;59.422;17.930;2024-01-27T09:35:59;-0.20;99.90
44695;DHT22;32845;59.422;17.930;2024-01-27T09:40:30;-0.20;99.90
44695;DHT22;32845;59.422;17.930;2024-01-27T09:45:02;-0.20;99.90
44695;DHT22;32845;59.422;17.930;2024-01-27T09:49:33;-0.10;99.90
44695;DHT22;32845;59.422;17.930;2024-01-27T09:54:05;0.00;99.90
44695;DHT22;32845;59.422;17.930;2024-01-27T09:58:35;0.10;99.90
44695;DHT22;32845;59.422;17.930;2024-01-27T10:03:07;0.20;99.90
44695;DHT22;32845;59.422;17.930;2024-01-27T10:07:40;0.30;99.90
44695;DHT22;32845;59.422;17.930;2024-01-27T10:12:12;0.50;99.90
44695;DHT22;32845;59.422;17.930;2024-01-27T10:16:44;0.70;99.90
44695;DHT22;32845;59.422;17.930;2024-01-27T10:21:18;0.90;99.90
44695;DHT22;32845;59.422;17.930;2024-01-27T10:25:51;1.00;99.90
44695;DHT22;32845;59.422;17.930;2024-01-27T10:30:22;1.20;99.90
44695;DHT22;32845;59.422;17.930;2024-01-27T10:35:21;1.40;99.90
44695;DHT22;32845;59.422;17.930;2024-01-27T10:40:08;1.60;99.90
44695;DHT22;32845;59.422;17.930;2024-01-27T10:44:41;1.80;99.90
44695;DHT22;32845;59.422;17.930;2024-01-27T10:49:16;2.10;99.90
44695;DHT22;32845;59.422;17.930;2024-01-27T10:53:49;2.40;99.90
44695;DHT22;32845;59.422;17.930;2024-01-27T10:58:23;2.50;99.90
44695;DHT22;32845;59.422;17.930;2024-01-27T11:02:58;3.00;99.90
44695;DHT22;32845;59.422;17.930;2024-01-27T11:07:33;3.40;99.90
44695;DHT22;32845;59.422;17.930;2024-01-27T11:12:05;3.90;99.90
44695;DHT22;32845;59.422;17.930;2024-01-27T11:16:37;4.10;99.90
44695;DHT22;32845;59.422;17.930;2024-01-27T11:21:17;4.30;99.90
44695;DHT22;32845;59.422;17.930;2024-01-27T11:25:47;4.20;99.90
44695;DHT22;32845;59.422;17.930;2024-01-27T11:30:28;4.80;99.90
44695;DHT22;32845;59.422;17.930;2024-01-27T11:35:00;4.90;99.90
44695;DHT22;32845;59.422;17.930;2024-01-27T11:39:32;5.20;99.90
44695;DHT22;32845;59.422;17.930;2024-01-27T11:44:03;5.50;99.90
44695;DHT22;32845;59.422;17.930;2024-01-27T11:48:41;5.70;99.90
44695;DHT22;32845;59.422;17.930;2024-01-27T11:53:12;6.10;99.90
44695;DHT22;32845;59.422;17.930;2024-01-27T11:57:43;6.70;99.90
44695;DHT22;32845;59.422;17.930;2024-01-27T12:02:14;7.50;99.90
44695;DHT22;32845;59.422;17.930;2024-01-27T12:06:45;8.00;99.90
44695;DHT22;32845;59.422;17.930;2024-01-27T12:11:16;8.40;99.90
44695;DHT22;32845;59.422;17.930;2024-01-27T12:15:46;9.00;99.90
44695;DHT22;32845;59.422;17.930;2024-01-27T12:20:18;9.60;99.90
44695;DHT22;32845;59.422;17.930;2024-01-27T12:24:49;9.80;99.90
44695;DHT22;32845;59.422;17.930;2024-01-27T12:29:20;8.70;99.90
44695;DHT22;32845;59.422;17.930;2024-01-27T12:33:52;7.10;99.90
44695;DHT22;32845;59.422;17.930;2024-01-27T12:38:23;5.70;99.90
44695;DHT22;32845;59.422;17.930;2024-01-27T12:42:54;4.80;99.90
44695;DHT22;32845;59.422;17.930;2024-01-27T12:47:25;4.00;99.90
44695;DHT22;32845;59.422;17.930;2024-01-27T12:51:55;3.50;99.90
44695;DHT22;32845;59.422;17.930;2024-01-27T12:56:26;3.10;99.90
44695;DHT22;32845;59.422;17.930;2024-01-27T13:00:57;2.90;99.90
44695;DHT22;32845;59.422;17.930;2024-01-27T13:05:32;2.70;99.90
44695;DHT22;32845;59.422;17.930;2024-01-27T13:10:04;2.60;99.90
44695;DHT22;32845;59.422;17.930;2024-01-27T13:14:36;2.50;99.90
44695;DHT22;32845;59.422;17.930;2024-01-27T13:19:06;2.40;99.90
44695;DHT22;32845;59.422;17.930;2024-01-27T13:23:37;2.30;99.90
44695;DHT22;32845;59.422;17.930;2024-01-27T13:28:08;2.30;99.90
44695;DHT22;32845;59.422;17.930;2024-01-27T13:32:41;2.30;99.90
44695;DHT22;32845;59.422;17.930;2024-01-27T13:37:12;2.20;99.90
44695;DHT22;32845;59.422;17.930;2024-01-27T13:41:42;2.20;99.90
44695;DHT22;32845;59.422;17.930;2024-01-27T13:46:13;2.20;99.90
44695;DHT22;32845;59.422;17.930;2024-01-27T13:50:44;2.20;99.90
44695;DHT22;32845;59.422;17.930;2024-01-27T13:55:15;2.20;99.90
44695;DHT22;32845;59.422;17.930;2024-01-27T13:59:46;2.10;99.90
44695;DHT22;32845;59.422;17.930;2024-01-27T14:04:17;2.10;99.90
44695;DHT22;32845;59.422;17.930;2024-01-27T14:08:47;2.00;99.90
44695;DHT22;32845;59.422;17.930;2024-01-27T14:13:18;2.00;99.90
44695;DHT22;32845;59.422;17.930;2024-01-27T14:17:49;2.00;99.90
44695;DHT22;32845;59.422;17.930;2024-01-27T14:22:19;2.00;99.90
44695;DHT22;32845;59.422;17.930;2024-01-27T14:26:50;1.90;99.90
44695;DHT22;32845;59.422;17.930;2024-01-27T14:31:21;1.90;99.90
44695;DHT22;32845;59.422;17.930;2024-01-27T14:35:52;1.90;99.90
44695;DHT22;32845;59.422;17.930;2024-01-27T14:40:23;1.80;99.90
44695;DHT22;32845;59.422;17.930;2024-01-27T14:44:56;1.80;99.90
44695;DHT22;32845;59.422;17.930;2024-01-27T14:49:26;1.70;99.90
44695;DHT22;32845;59.422;17.930;2024-01-27T14:53:58;1.60;99.90
44695;DHT22;32845;59.422;17.930;2024-01-27T14:58:34;1.60;99.90
44695;DHT22;32845;59.422;17.930;2024-01-27T15:03:06;1.50;99.90
44695;DHT22;32845;59.422;17.930;2024-01-27T15:07:36;1.50;99.90
44695;DHT22;32845;59.422;17.930;2024-01-27T15:12:07;1.40;99.90
44695;DHT22;32845;59.422;17.930;2024-01-27T15:16:38;1.40;99.90
44695;DHT22;32845;59.422;17.930;2024-01-27T15:21:09;1.40;99.90
44695;DHT22;32845;59.422;17.930;2024-01-27T15:25:40;1.40;99.90
44695;DHT22;32845;59.422;17.930;2024-01-27T15:30:12;1.40;99.90
44695;DHT22;32845;59.422;17.930;2024-01-27T15:34:43;1.40;99.90
44695;DHT22;32845;59.422;17.930;2024-01-27T15:39:14;1.40;99.90
44695;DHT22;32845;59.422;17.930;2024-01-27T15:43:45;1.40;99.90
44695;DHT22;32845;59.422;17.930;2024-01-27T15:48:17;1.30;99.90
44695;DHT22;32845;59.422;17.930;2024-01-27T15:52:48;1.30;99.90
44695;DHT22;32845;59.422;17.930;2024-01-27T15:57:19;1.40;99.90
44695;DHT22;32845;59.422;17.930;2024-01-27T16:01:49;1.40;99.90
44695;DHT22;32845;59.422;17.930;2024-01-27T16:06:20;1.40;99.90
44695;DHT22;32845;59.422;17.930;2024-01-27T16:10:50;1.40;99.90
44695;DHT22;32845;59.422;17.930;2024-01-27T16:15:22;1.40;99.90
44695;DHT22;32845;59.422;17.930;2024-01-27T16:19:53;1.50;99.90
44695;DHT22;32845;59.422;17.930;2024-01-27T16:24:24;1.50;99.90
44695;DHT22;32845;59.422;17.930;2024-01-27T16:28:55;1.60;99.90
44695;DHT22;32845;59.422;17.930;2024-01-27T16:33:26;1.70;99.90
44695;DHT22;32845;59.422;17.930;2024-01-27T16:37:57;1.70;99.90
44695;DHT22;32845;59.422;17.930;2024-01-27T16:42:28;1.80;99.90
44695;DHT22;32845;59.422;17.930;2024-01-27T16:47:00;1.80;99.90
44695;DHT22;32845;59.422;17.930;2024-01-27T16:51:30;1.80;99.90
44695;DHT22;32845;59.422;17.930;2024-01-27T16:56:01;1.90;99.90
44695;DHT22;32845;59.422;17.930;2024-01-27T17:00:32;1.90;99.90
44695;DHT22;32845;59.422;17.930;2024-01-27T17:05:04;1.90;99.90
44695;DHT22;32845;59.422;17.930;2024-01-27T17:09:35;1.90;99.90
44695;DHT22;32845;59.422;17.930;2024-01-27T17:14:08;1.90;99.90
44695;DHT22;32845;59.422;17.930;2024-01-27T17:18:38;2.00;99.90
44695;DHT22;32845;59.422;17.930;2024-01-27T17:23:09;2.00;99.90
44695;DHT22;32845;59.422;17.930;2024-01-27T17:27:40;2.00;99.90
44695;DHT22;32845;59.422;17.930;2024-01-27T17:32:10;2.00;99.90
44695;DHT22;32845;59.422;17.930;2024-01-27T17:36:41;2.00;99.90
44695;DHT22;32845;59.422;17.930;2024-01-27T17:41:11;2.10;99.90
44695;DHT22;32845;59.422;17.930;2024-01-27T17:45:42;2.10;99.90
44695;DHT22;32845;59.422;17.930;2024-01-27T17:50:12;2.20;99.90
44695;DHT22;32845;59.422;17.930;2024-01-27T17:54:43;2.20;99.90
44695;DHT22;32845;59.422;17.930;2024-01-27T17:59:14;2.30;99.90
44695;DHT22;32845;59.422;17.930;2024-01-27T18:03:44;2.30;99.90
44695;DHT22;32845;59.422;17.930;2024-01-27T18:08:16;2.30;99.90
44695;DHT22;32845;59.422;17.930;2024-01-27T18:12:47;2.40;99.90
44695;DHT22;32845;59.422;17.930;2024-01-27T18:17:17;2.40;99.90
44695;DHT22;32845;59.422;17.930;2024-01-27T18:21:48;2.50;99.90
44695;DHT22;32845;59.422;17.930;2024-01-27T18:26:19;2.50;99.90
44695;DHT22;32845;59.422;17.930;2024-01-27T18:30:51;2.50;99.90
44695;DHT22;32845;59.422;17.930;2024-01-27T18:35:21;2.60;99.90
44695;DHT22;32845;59.422;17.930;2024-01-27T18:39:52;2.60;99.90
44695;DHT22;32845;59.422;17.930;2024-01-27T18:44:23;2.70;99.90
44695;DHT22;32845;59.422;17.930;2024-01-27T18:48:53;2.80;99.90
44695;DHT22;32845;59.422;17.930;2024-01-27T18:53:24;2.80;99.90
44695;DHT22;32845;59.422;17.930;2024-01-27T18:57:54;2.80;99.90
44695;DHT22;32845;59.422;17.930;2024-01-27T19:02:25;2.90;99.90
44695;DHT22;32845;59.422;17.930;2024-01-27T19:06:55;2.90;99.90
44695;DHT22;32845;59.422;17.930;2024-01-27T19:11:26;2.90;99.90
44695;DHT22;32845;59.422;17.930;2024-01-27T19:15:57;2.90;99.90
44695;DHT22;32845;59.422;17.930;2024-01-27T19:20:29;3.00;99.90
44695;DHT22;32845;59.422;17.930;2024-01-27T19:25:05;3.00;99.90
44695;DHT22;32845;59.422;17.930;2024-01-27T19:29:36;3.10;99.90
44695;DHT22;32845;59.422;17.930;2024-01-27T19:34:06;3.10;99.90
44695;DHT22;32845;59.422;17.930;2024-01-27T19:38:37;3.10;99.90
44695;DHT22;32845;59.422;17.930;2024-01-27T19:43:08;3.20;99.90
44695;DHT22;32845;59.422;17.930;2024-01-27T19:47:40;3.20;99.90
44695;DHT22;32845;59.422;17.930;2024-01-27T19:52:10;3.30;99.90
44695;DHT22;32845;59.422;17.930;2024-01-27T19:56:41;3.30;99.90
44695;DHT22;32845;59.422;17.930;2024-01-27T20:01:15;3.30;99.90
44695;DHT22;32845;59.422;17.930;2024-01-27T20:05:46;3.40;99.90
44695;DHT22;32845;59.422;17.930;2024-01-27T20:10:17;3.40;99.90
44695;DHT22;32845;59.422;17.930;2024-01-27T20:14:50;3.40;99.90
44695;DHT22;32845;59.422;17.930;2024-01-27T20:19:21;3.50;99.90
44695;DHT22;32845;59.422;17.930;2024-01-27T20:23:52;3.50;99.90
44695;DHT22;32845;59.422;17.930;2024-01-27T20:28:23;3.60;99.90
44695;DHT22;32845;59.422;17.930;2024-01-27T20:32:55;3.60;99.90
44695;DHT22;32845;59.422;17.930;2024-01-27T20:37:28;3.70;99.90
44695;DHT22;32845;59.422;17.930;2024-01-27T20:41:58;3.70;99.90
44695;DHT22;32845;59.422;17.930;2024-01-27T20:46:29;3.80;99.90
44695;DHT22;32845;59.422;17.930;2024-01-27T20:50:59;3.80;99.90
44695;DHT22;32845;59.422;17.930;2024-01-27T20:55:30;3.80;99.90
44695;DHT22;32845;59.422;17.930;2024-01-27T21:00:00;3.80;99.90
44695;DHT22;32845;59.422;17.930;2024-01-27T21:04:31;3.90;99.90
44695;DHT22;32845;59.422;17.930;2024-01-27T21:09:05;3.90;99.90
44695;DHT22;32845;59.422;17.930;2024-01-27T21:13:37;3.90;99.90
44695;DHT22;32845;59.422;17.930;2024-01-27T21:18:08;3.90;99.90
44695;DHT22;32845;59.422;17.930;2024-01-27T21:22:38;4.00;99.90
44695;DHT22;32845;59.422;17.930;2024-01-27T21:27:09;4.00;99.90
44695;DHT22;32845;59.422;17.930;2024-01-27T21:31:39;4.00;99.90
44695;DHT22;32845;59.422;17.930;2024-01-27T21:36:15;4.00;99.90
44695;DHT22;32845;59.422;17.930;2024-01-27T21:40:46;4.10;99.90
44695;DHT22;32845;59.422;17.930;2024-01-27T21:45:17;4.10;99.90
44695;DHT22;32845;59.422;17.930;2024-01-27T21:49:48;4.10;99.90
44695;DHT22;32845;59.422;17.930;2024-01-27T21:54:18;4.10;99.90
44695;DHT22;32845;59.422;17.930;2024-01-27T21:58:49;4.10;99.90
44695;DHT22;32845;59.422;17.930;2024-01-27T22:03:19;4.20;99.90
44695;DHT22;32845;59.422;17.930;2024-01-27T22:07:50;4.20;99.90
44695;DHT22;32845;59.422;17.930;2024-01-27T22:12:21;4.20;99.90
44695;DHT22;32845;59.422;17.930;2024-01-27T22:16:51;4.20;99.90
44695;DHT22;32845;59.422;17.930;2024-01-27T22:21:22;4.30;99.90
44695;DHT22;32845;59.422;17.930;2024-01-27T22:25:53;4.30;99.90
44695;DHT22;32845;59.422;17.930;2024-01-27T22:30:23;4.30;99.90
44695;DHT22;32845;59.422;17.930;2024-01-27T22:34:54;4.30;99.90
44695;DHT22;32845;59.422;17.930;2024-01-27T22:39:25;4.30;99.90
44695;DHT22;32845;59.422;17.930;2024-01-27T22:43:55;4.30;99.90
44695;DHT22;32845;59.422;17.930;2024-01-27T22:48:26;4.40;99.90
44695;DHT22;32845;59.422;17.930;2024-01-27T22:52:57;4.50;99.90
44695;DHT22;32845;59.422;17.930;2024-01-27T22:57:28;4.50;99.90
44695;DHT22;32845;59.422;17.930;2024-01-27T23:01:59;4.50;99.90
44695;DHT22;32845;59.422;17.930;2024-01-27T23:06:30;4.50;99.90
44695;DHT22;32845;59.422;17.930;2024-01-27T23:11:01;4.50;99.90
44695;DHT22;32845;59.422;17.930;2024-01-27T23:15:31;4.60;99.90
44695;DHT22;32845;59.422;17.930;2024-01-27T23:20:03;4.60;99.90
44695;DHT22;32845;59.422;17.930;2024-01-27T23:24:34;4.50;99.90
44695;DHT22;32845;59.422;17.930;2024-01-27T23:29:05;4.60;99.90
44695;DHT22;32845;59.422;17.930;2024-01-27T23:33:36;4.60;99.90
44695;DHT22;32845;59.422;17.930;2024-01-27T23:38:07;4.60;99.90
44695;DHT22;32845;59.422;17.930;2024-01-27T23:42:37;4.60;99.90
44695;DHT22;32845;59.422;17.930;2024-01-27T23:47:10;4.70;99.90
44695;DHT22;32845;59.422;17.930;2024-01-27T23:51:41;4.70;99.90
44695;DHT22;32845;59.422;17.930;2024-01-27T23:56:13;4.70;99.90
